This is the latest recevied weather packets stored in our database for station/object DL1NUX-15. If no packets are shown the sender has not sent any weather packets the latest 10 day(s).
| Time | Temp. | Humidity | Pressure | Rain* | Wind** | Luminosity | Snow |
|---|---|---|---|---|---|---|---|
| 1777160134 | 9.44° C | 52% | 1020 hPa | 0 mm | - | 0 W/m² | - |
| 1777158335 | 10° C | 50% | 1019.7 hPa | 0 mm | - | 0 W/m² | - |
| 1777157735 | 10.56° C | 49% | 1019.7 hPa | 0 mm | - | 0 W/m² | - |
| 1777150541 | 11.11° C | 49% | 1018.5 hPa | 0 mm | - | 0 W/m² | - |
| 1777149341 | 12.22° C | 46% | 1018.3 hPa | 0 mm | - | 0 W/m² | - |
| 1777148742 | 12.78° C | 47% | 1018.3 hPa | 0 mm | - | 0 W/m² | - |
| 1777148142 | 12.22° C | 47% | 1018.4 hPa | 0 mm | - | 0 W/m² | - |
| 1777147542 | 12.78° C | 46% | 1018.3 hPa | 0 mm | - | 0 W/m² | - |
| 1777145744 | 12.78° C | 46% | 1018.1 hPa | 0 mm | - | 0 W/m² | - |
| 1777144545 | 13.89° C | 41% | 1017.8 hPa | 0 mm | - | 0 W/m² | - |
| 1777143945 | 14.44° C | 40% | 1017.9 hPa | 0 mm | - | 0 W/m² | - |
| 1777142746 | 15° C | 38% | 1017.6 hPa | 0 mm | - | 0 W/m² | - |
| 1777142146 | 15° C | 36% | 1017.5 hPa | 0 mm | - | 0 W/m² | - |
| 1777137950 | 19.44° C | 27% | 1017 hPa | 0 mm | - | 40 W/m² | - |
| 1777135551 | 20° C | 24% | 1016.9 hPa | 0 mm | - | 107 W/m² | - |
| 1777134952 | 20° C | 25% | 1016.8 hPa | 0 mm | - | 125 W/m² | - |
| 1777133152 | 20.56° C | 24% | 1016.9 hPa | 0 mm | - | 191 W/m² | - |
| 1777132554 | 20.56° C | 24% | 1017 hPa | 0 mm | - | 213 W/m² | - |
| 1777131354 | 20.56° C | 25% | 1017 hPa | 0 mm | - | 241 W/m² | - |
| 1777128340 | 21.11° C | 23% | 1016.9 hPa | 0 mm | - | 370 W/m² | - |
| 1777127141 | 21.11° C | 21% | 1016.9 hPa | 0 mm | - | 389 W/m² | - |
| 1777125342 | 21.11° C | 25% | 1017.1 hPa | 0 mm | - | 462 W/m² | - |
| 1777124143 | 21.11° C | 25% | 1017.2 hPa | 0 mm | - | 458 W/m² | - |
| 1777122344 | 21.11° C | 28% | 1017.4 hPa | 0 mm | - | 521 W/m² | - |
| 1777121744 | 20.56° C | 30% | 1017.5 hPa | 0 mm | - | 470 W/m² | - |
* Rain latest hour (hover to see other rain measurements)
** Current wind speed in m/s (hover to see current wind gust speed)